Outlook, Washington
Current Conditions -  °F | °C
As of 9:53 AM on Monday 24 Nov 2014 (Local Time) from KYKM Reporting Station
Clear Clear  
Wind Chill: 37°   Ceiling: Unl
Heat Index: 37°   Visibility: 10mi
Dew Point: 29°   Wind: 0mph
Humidity: 73%   Direction: NA
Pressure: 30.35"   Gusts: NA
Location:  46.33°N, 120.09°W
Report Text: KYKM 241753Z 00000KT 10SM CLR 03/M02 A3035 RMK AO2 SLP288 T00281017 10028 21039 58002
Loading
Personal Weather Stations






























Interactive Weather Map New forecast layout! Learn more

10-Day Weather Forecast

Advertisements
Track Severe Weather on mobile